sensor_id;sensor_type;location;lat;lon;timestamp;P1;durP1;ratioP1;P2;durP2;ratioP2
59193;SDS011;44967;48.598;15.650;2022-08-04T00:04:13;3.53;;;2.50;;
59193;SDS011;44967;48.598;15.650;2022-08-04T00:09:43;2.97;;;2.60;;
59193;SDS011;44967;48.598;15.650;2022-08-04T00:12:24;2.05;;;1.95;;
59193;SDS011;44967;48.598;15.650;2022-08-04T00:14:54;2.30;;;1.88;;
59193;SDS011;44967;48.598;15.650;2022-08-04T00:17:25;3.25;;;2.35;;
59193;SDS011;44967;48.598;15.650;2022-08-04T00:20:05;2.15;;;2.03;;
59193;SDS011;44967;48.598;15.650;2022-08-04T00:22:33;2.20;;;2.10;;
59193;SDS011;44967;48.598;15.650;2022-08-04T00:25:03;3.33;;;2.08;;
59193;SDS011;44967;48.598;15.650;2022-08-04T00:27:30;2.15;;;1.95;;
59193;SDS011;44967;48.598;15.650;2022-08-04T00:29:56;2.90;;;2.20;;
59193;SDS011;44967;48.598;15.650;2022-08-04T00:32:24;1.95;;;1.70;;
59193;SDS011;44967;48.598;15.650;2022-08-04T00:34:54;2.30;;;2.10;;
59193;SDS011;44967;48.598;15.650;2022-08-04T00:37:22;4.03;;;2.60;;
59193;SDS011;44967;48.598;15.650;2022-08-04T00:39:49;2.53;;;2.17;;
59193;SDS011;44967;48.598;15.650;2022-08-04T00:45:11;2.35;;;2.15;;
59193;SDS011;44967;48.598;15.650;2022-08-04T00:47:56;6.80;;;2.35;;
59193;SDS011;44967;48.598;15.650;2022-08-04T00:53:25;3.35;;;2.38;;
59193;SDS011;44967;48.598;15.650;2022-08-04T01:01:50;4.10;;;2.28;;
59193;SDS011;44967;48.598;15.650;2022-08-04T01:04:43;2.55;;;2.35;;
59193;SDS011;44967;48.598;15.650;2022-08-04T01:12:22;2.30;;;2.10;;
59193;SDS011;44967;48.598;15.650;2022-08-04T01:18:06;3.78;;;2.47;;
59193;SDS011;44967;48.598;15.650;2022-08-04T01:20:36;2.35;;;2.15;;
59193;SDS011;44967;48.598;15.650;2022-08-04T01:26:12;2.63;;;2.42;;
59193;SDS011;44967;48.598;15.650;2022-08-04T01:32:13;2.55;;;2.30;;
59193;SDS011;44967;48.598;15.650;2022-08-04T01:36:42;2.08;;;1.83;;
59193;SDS011;44967;48.598;15.650;2022-08-04T01:39:11;2.50;;;2.30;;
59193;SDS011;44967;48.598;15.650;2022-08-04T01:42:00;2.92;;;2.70;;
59193;SDS011;44967;48.598;15.650;2022-08-04T01:44:28;4.32;;;2.53;;
59193;SDS011;44967;48.598;15.650;2022-08-04T01:46:55;2.60;;;2.40;;
59193;SDS011;44967;48.598;15.650;2022-08-04T01:49:21;2.83;;;2.63;;
59193;SDS011;44967;48.598;15.650;2022-08-04T01:51:56;2.67;;;2.47;;
59193;SDS011;44967;48.598;15.650;2022-08-04T01:54:23;3.00;;;2.70;;
59193;SDS011;44967;48.598;15.650;2022-08-04T01:56:50;4.30;;;2.70;;
59193;SDS011;44967;48.598;15.650;2022-08-04T01:59:18;2.80;;;2.45;;
59193;SDS011;44967;48.598;15.650;2022-08-04T02:01:45;2.90;;;2.58;;
59193;SDS011;44967;48.598;15.650;2022-08-04T02:04:15;2.80;;;2.60;;
59193;SDS011;44967;48.598;15.650;2022-08-04T02:12:23;2.67;;;2.47;;
59193;SDS011;44967;48.598;15.650;2022-08-04T02:22:39;2.80;;;2.60;;
59193;SDS011;44967;48.598;15.650;2022-08-04T02:25:11;3.30;;;3.05;;
59193;SDS011;44967;48.598;15.650;2022-08-04T02:30:27;3.42;;;3.10;;
59193;SDS011;44967;48.598;15.650;2022-08-04T02:32:59;4.03;;;3.20;;
59193;SDS011;44967;48.598;15.650;2022-08-04T02:35:28;3.63;;;3.33;;
59193;SDS011;44967;48.598;15.650;2022-08-04T02:38:37;3.05;;;2.75;;
59193;SDS011;44967;48.598;15.650;2022-08-04T02:40:57;3.95;;;2.92;;
59193;SDS011;44967;48.598;15.650;2022-08-04T02:43:26;3.67;;;3.00;;
59193;SDS011;44967;48.598;15.650;2022-08-04T02:45:54;2.83;;;2.60;;
59193;SDS011;44967;48.598;15.650;2022-08-04T02:48:21;3.28;;;2.97;;
59193;SDS011;44967;48.598;15.650;2022-08-04T02:50:48;3.55;;;2.80;;
59193;SDS011;44967;48.598;15.650;2022-08-04T02:53:15;2.80;;;2.60;;
59193;SDS011;44967;48.598;15.650;2022-08-04T02:55:46;3.97;;;3.00;;
59193;SDS011;44967;48.598;15.650;2022-08-04T02:58:13;4.00;;;3.13;;
59193;SDS011;44967;48.598;15.650;2022-08-04T03:00:41;5.75;;;3.50;;
59193;SDS011;44967;48.598;15.650;2022-08-04T03:44:34;3.50;;;2.83;;
59193;SDS011;44967;48.598;15.650;2022-08-04T04:11:50;3.53;;;3.22;;
59193;SDS011;44967;48.598;15.650;2022-08-04T04:14:32;5.20;;;3.22;;
59193;SDS011;44967;48.598;15.650;2022-08-04T04:17:04;3.75;;;3.38;;
59193;SDS011;44967;48.598;15.650;2022-08-04T04:31:55;3.35;;;3.05;;
59193;SDS011;44967;48.598;15.650;2022-08-04T04:34:39;3.45;;;3.17;;
59193;SDS011;44967;48.598;15.650;2022-08-04T04:37:36;3.70;;;2.90;;
59193;SDS011;44967;48.598;15.650;2022-08-04T04:52:04;4.10;;;3.70;;
59193;SDS011;44967;48.598;15.650;2022-08-04T04:54:33;4.85;;;3.13;;
59193;SDS011;44967;48.598;15.650;2022-08-04T04:57:22;4.00;;;3.60;;
59193;SDS011;44967;48.598;15.650;2022-08-04T04:59:55;3.67;;;3.30;;
59193;SDS011;44967;48.598;15.650;2022-08-04T05:02:27;3.20;;;2.95;;
59193;SDS011;44967;48.598;15.650;2022-08-04T05:16:25;3.53;;;3.20;;
59193;SDS011;44967;48.598;15.650;2022-08-04T05:19:07;3.58;;;3.28;;
59193;SDS011;44967;48.598;15.650;2022-08-04T05:21:58;3.25;;;2.95;;
59193;SDS011;44967;48.598;15.650;2022-08-04T05:24:31;3.88;;;2.72;;
59193;SDS011;44967;48.598;15.650;2022-08-04T05:27:02;4.75;;;3.30;;
59193;SDS011;44967;48.598;15.650;2022-08-04T05:29:48;3.47;;;3.05;;
59193;SDS011;44967;48.598;15.650;2022-08-04T05:32:35;3.28;;;2.97;;
59193;SDS011;44967;48.598;15.650;2022-08-04T05:35:10;3.05;;;2.78;;
59193;SDS011;44967;48.598;15.650;2022-08-04T05:37:39;3.47;;;3.17;;
59193;SDS011;44967;48.598;15.650;2022-08-04T05:40:08;3.45;;;3.15;;
59193;SDS011;44967;48.598;15.650;2022-08-04T05:42:37;3.65;;;3.00;;
59193;SDS011;44967;48.598;15.650;2022-08-04T05:45:05;5.35;;;3.10;;
59193;SDS011;44967;48.598;15.650;2022-08-04T05:47:32;3.78;;;3.38;;
59193;SDS011;44967;48.598;15.650;2022-08-04T05:50:00;3.28;;;2.95;;
59193;SDS011;44967;48.598;15.650;2022-08-04T05:52:26;4.20;;;3.00;;
59193;SDS011;44967;48.598;15.650;2022-08-04T05:54:53;3.38;;;3.08;;
59193;SDS011;44967;48.598;15.650;2022-08-04T05:57:20;3.60;;;3.30;;
59193;SDS011;44967;48.598;15.650;2022-08-04T05:59:47;3.40;;;3.10;;
59193;SDS011;44967;48.598;15.650;2022-08-04T06:02:15;3.75;;;3.20;;
59193;SDS011;44967;48.598;15.650;2022-08-04T06:04:44;5.15;;;3.17;;
59193;SDS011;44967;48.598;15.650;2022-08-04T06:07:13;4.75;;;3.08;;
59193;SDS011;44967;48.598;15.650;2022-08-04T06:09:40;3.58;;;3.28;;
59193;SDS011;44967;48.598;15.650;2022-08-04T06:12:07;3.65;;;3.35;;
59193;SDS011;44967;48.598;15.650;2022-08-04T06:14:43;4.97;;;3.78;;
59193;SDS011;44967;48.598;15.650;2022-08-04T06:17:15;3.97;;;3.15;;
59193;SDS011;44967;48.598;15.650;2022-08-04T06:19:47;5.60;;;3.90;;
59193;SDS011;44967;48.598;15.650;2022-08-04T06:22:16;3.35;;;3.05;;
59193;SDS011;44967;48.598;15.650;2022-08-04T06:24:44;4.60;;;3.25;;
59193;SDS011;44967;48.598;15.650;2022-08-04T06:27:13;3.90;;;3.35;;
59193;SDS011;44967;48.598;15.650;2022-08-04T06:29:41;3.42;;;3.13;;
59193;SDS011;44967;48.598;15.650;2022-08-04T06:32:08;3.15;;;2.95;;
59193;SDS011;44967;48.598;15.650;2022-08-04T06:34:59;3.65;;;3.05;;
59193;SDS011;44967;48.598;15.650;2022-08-04T06:37:26;6.78;;;3.70;;
59193;SDS011;44967;48.598;15.650;2022-08-04T06:39:53;4.38;;;3.17;;
59193;SDS011;44967;48.598;15.650;2022-08-04T06:42:20;3.47;;;3.08;;
59193;SDS011;44967;48.598;15.650;2022-08-04T06:44:50;3.83;;;3.28;;
59193;SDS011;44967;48.598;15.650;2022-08-04T06:47:19;3.65;;;3.35;;
59193;SDS011;44967;48.598;15.650;2022-08-04T06:49:47;3.83;;;2.85;;
59193;SDS011;44967;48.598;15.650;2022-08-04T06:52:15;4.25;;;2.55;;
59193;SDS011;44967;48.598;15.650;2022-08-04T06:54:46;3.65;;;3.22;;
59193;SDS011;44967;48.598;15.650;2022-08-04T06:57:13;3.20;;;2.90;;
59193;SDS011;44967;48.598;15.650;2022-08-04T06:59:43;3.95;;;3.28;;
59193;SDS011;44967;48.598;15.650;2022-08-04T07:02:14;3.25;;;2.55;;
59193;SDS011;44967;48.598;15.650;2022-08-04T07:04:45;3.90;;;3.38;;
59193;SDS011;44967;48.598;15.650;2022-08-04T07:07:12;3.13;;;2.83;;
59193;SDS011;44967;48.598;15.650;2022-08-04T07:09:38;3.20;;;2.75;;
59193;SDS011;44967;48.598;15.650;2022-08-04T07:12:04;4.47;;;2.60;;
59193;SDS011;44967;48.598;15.650;2022-08-04T07:14:32;3.83;;;3.42;;
59193;SDS011;44967;48.598;15.650;2022-08-04T07:17:05;5.57;;;3.45;;
59193;SDS011;44967;48.598;15.650;2022-08-04T07:19:36;2.90;;;2.70;;
59193;SDS011;44967;48.598;15.650;2022-08-04T07:22:02;4.47;;;3.67;;
59193;SDS011;44967;48.598;15.650;2022-08-04T07:24:31;3.20;;;3.00;;
59193;SDS011;44967;48.598;15.650;2022-08-04T07:26:58;3.28;;;2.92;;
59193;SDS011;44967;48.598;15.650;2022-08-04T07:29:24;2.90;;;2.53;;
59193;SDS011;44967;48.598;15.650;2022-08-04T07:31:51;3.45;;;3.20;;
59193;SDS011;44967;48.598;15.650;2022-08-04T07:34:20;3.10;;;2.80;;
59193;SDS011;44967;48.598;15.650;2022-08-04T07:36:47;3.05;;;2.22;;
59193;SDS011;44967;48.598;15.650;2022-08-04T07:39:14;3.50;;;3.08;;
59193;SDS011;44967;48.598;15.650;2022-08-04T07:41:40;2.90;;;2.53;;
59193;SDS011;44967;48.598;15.650;2022-08-04T07:44:08;3.97;;;2.42;;
59193;SDS011;44967;48.598;15.650;2022-08-04T07:46:35;2.47;;;2.28;;
59193;SDS011;44967;48.598;15.650;2022-08-04T07:49:01;3.08;;;2.63;;
59193;SDS011;44967;48.598;15.650;2022-08-04T07:51:27;2.78;;;2.58;;
59193;SDS011;44967;48.598;15.650;2022-08-04T07:53:57;3.40;;;2.20;;
59193;SDS011;44967;48.598;15.650;2022-08-04T07:56:27;2.40;;;2.20;;
59193;SDS011;44967;48.598;15.650;2022-08-04T07:58:54;2.63;;;2.13;;
59193;SDS011;44967;48.598;15.650;2022-08-04T08:01:21;3.75;;;2.20;;
59193;SDS011;44967;48.598;15.650;2022-08-04T08:03:47;2.13;;;1.95;;
59193;SDS011;44967;48.598;15.650;2022-08-04T08:06:14;3.17;;;2.05;;
59193;SDS011;44967;48.598;15.650;2022-08-04T08:08:40;2.20;;;2.00;;
59193;SDS011;44967;48.598;15.650;2022-08-04T08:11:06;2.63;;;1.98;;
59193;SDS011;44967;48.598;15.650;2022-08-04T08:13:33;1.85;;;1.70;;
59193;SDS011;44967;48.598;15.650;2022-08-04T08:15:59;1.80;;;1.67;;
59193;SDS011;44967;48.598;15.650;2022-08-04T08:18:25;2.28;;;1.95;;
59193;SDS011;44967;48.598;15.650;2022-08-04T08:20:51;2.63;;;2.00;;
59193;SDS011;44967;48.598;15.650;2022-08-04T08:23:17;2.72;;;2.10;;
59193;SDS011;44967;48.598;15.650;2022-08-04T08:25:43;2.30;;;2.10;;
59193;SDS011;44967;48.598;15.650;2022-08-04T08:28:10;3.17;;;1.95;;
59193;SDS011;44967;48.598;15.650;2022-08-04T08:30:36;2.95;;;2.00;;
59193;SDS011;44967;48.598;15.650;2022-08-04T08:33:05;4.68;;;2.08;;
59193;SDS011;44967;48.598;15.650;2022-08-04T08:47:15;1.63;;;1.50;;
59193;SDS011;44967;48.598;15.650;2022-08-04T08:58:54;2.63;;;1.70;;
59193;SDS011;44967;48.598;15.650;2022-08-04T09:19:18;2.40;;;1.60;;
59193;SDS011;44967;48.598;15.650;2022-08-04T09:27:15;1.90;;;1.70;;
59193;SDS011;44967;48.598;15.650;2022-08-04T09:30:00;2.63;;;1.50;;
59193;SDS011;44967;48.598;15.650;2022-08-04T09:38:14;1.50;;;1.40;;
59193;SDS011;44967;48.598;15.650;2022-08-04T09:43:51;1.75;;;1.65;;
59193;SDS011;44967;48.598;15.650;2022-08-04T09:46:31;3.97;;;2.05;;
59193;SDS011;44967;48.598;15.650;2022-08-04T09:49:09;2.53;;;1.42;;
59193;SDS011;44967;48.598;15.650;2022-08-04T10:02:14;1.67;;;1.58;;
59193;SDS011;44967;48.598;15.650;2022-08-04T10:04:43;1.95;;;1.85;;
59193;SDS011;44967;48.598;15.650;2022-08-04T10:10:32;2.95;;;1.70;;
59193;SDS011;44967;48.598;15.650;2022-08-04T10:15:26;2.38;;;1.70;;
59193;SDS011;44967;48.598;15.650;2022-08-04T10:18:04;2.65;;;1.60;;
59193;SDS011;44967;48.598;15.650;2022-08-04T10:21:04;2.55;;;1.80;;
59193;SDS011;44967;48.598;15.650;2022-08-04T10:23:46;3.13;;;1.52;;
59193;SDS011;44967;48.598;15.650;2022-08-04T10:29:36;1.75;;;1.65;;
59193;SDS011;44967;48.598;15.650;2022-08-04T10:32:24;1.63;;;1.52;;
59193;SDS011;44967;48.598;15.650;2022-08-04T10:34:58;1.70;;;1.60;;
59193;SDS011;44967;48.598;15.650;2022-08-04T10:37:31;1.60;;;1.50;;
59193;SDS011;44967;48.598;15.650;2022-08-04T10:43:08;2.42;;;1.70;;
59193;SDS011;44967;48.598;15.650;2022-08-04T10:45:46;5.68;;;2.30;;
59193;SDS011;44967;48.598;15.650;2022-08-04T10:48:19;2.45;;;1.60;;
59193;SDS011;44967;48.598;15.650;2022-08-04T10:53:56;1.98;;;1.67;;
59193;SDS011;44967;48.598;15.650;2022-08-04T10:59:17;2.03;;;1.83;;
59193;SDS011;44967;48.598;15.650;2022-08-04T11:01:49;3.15;;;1.85;;
59193;SDS011;44967;48.598;15.650;2022-08-04T11:04:28;1.92;;;1.80;;
59193;SDS011;44967;48.598;15.650;2022-08-04T11:07:16;2.00;;;1.40;;
59193;SDS011;44967;48.598;15.650;2022-08-04T11:09:42;2.70;;;1.40;;
59193;SDS011;44967;48.598;15.650;2022-08-04T11:12:14;3.75;;;1.88;;
59193;SDS011;44967;48.598;15.650;2022-08-04T11:14:55;2.95;;;1.80;;
59193;SDS011;44967;48.598;15.650;2022-08-04T11:17:30;2.17;;;1.58;;
59193;SDS011;44967;48.598;15.650;2022-08-04T11:22:49;1.50;;;1.40;;
59193;SDS011;44967;48.598;15.650;2022-08-04T11:25:24;1.58;;;1.30;;
59193;SDS011;44967;48.598;15.650;2022-08-04T11:27:55;2.03;;;1.17;;
59193;SDS011;44967;48.598;15.650;2022-08-04T11:30:46;1.40;;;1.30;;
59193;SDS011;44967;48.598;15.650;2022-08-04T11:36:02;1.45;;;1.23;;
59193;SDS011;44967;48.598;15.650;2022-08-04T11:38:36;1.50;;;1.40;;
59193;SDS011;44967;48.598;15.650;2022-08-04T11:41:08;1.40;;;1.30;;
59193;SDS011;44967;48.598;15.650;2022-08-04T11:46:38;1.85;;;1.20;;
59193;SDS011;44967;48.598;15.650;2022-08-04T11:49:09;1.63;;;1.52;;
59193;SDS011;44967;48.598;15.650;2022-08-04T11:51:39;1.27;;;1.20;;
59193;SDS011;44967;48.598;15.650;2022-08-04T11:54:09;1.55;;;1.45;;
59193;SDS011;44967;48.598;15.650;2022-08-04T11:56:36;1.52;;;1.42;;
59193;SDS011;44967;48.598;15.650;2022-08-04T11:59:02;1.48;;;1.38;;
59193;SDS011;44967;48.598;15.650;2022-08-04T12:01:37;2.50;;;1.60;;
59193;SDS011;44967;48.598;15.650;2022-08-04T12:04:23;2.00;;;1.42;;
59193;SDS011;44967;48.598;15.650;2022-08-04T12:10:02;1.83;;;1.73;;
59193;SDS011;44967;48.598;15.650;2022-08-04T12:12:32;7.65;;;1.60;;
59193;SDS011;44967;48.598;15.650;2022-08-04T12:15:08;3.20;;;1.60;;
59193;SDS011;44967;48.598;15.650;2022-08-04T12:17:48;3.70;;;1.70;;
59193;SDS011;44967;48.598;15.650;2022-08-04T12:20:33;2.38;;;1.52;;
59193;SDS011;44967;48.598;15.650;2022-08-04T12:23:20;2.63;;;1.83;;
59193;SDS011;44967;48.598;15.650;2022-08-04T12:25:51;1.70;;;1.60;;
59193;SDS011;44967;48.598;15.650;2022-08-04T12:28:38;2.30;;;1.65;;
59193;SDS011;44967;48.598;15.650;2022-08-04T12:33:39;5.90;;;2.45;;
59193;SDS011;44967;48.598;15.650;2022-08-04T12:36:23;3.90;;;1.77;;
59193;SDS011;44967;48.598;15.650;2022-08-04T12:39:00;2.83;;;1.88;;
59193;SDS011;44967;48.598;15.650;2022-08-04T12:41:34;1.77;;;1.67;;
59193;SDS011;44967;48.598;15.650;2022-08-04T12:44:09;2.15;;;2.05;;
59193;SDS011;44967;48.598;15.650;2022-08-04T12:46:39;3.90;;;2.85;;
59193;SDS011;44967;48.598;15.650;2022-08-04T12:49:11;3.30;;;1.70;;
59193;SDS011;44967;48.598;15.650;2022-08-04T12:51:41;1.98;;;1.55;;
59193;SDS011;44967;48.598;15.650;2022-08-04T12:54:08;2.05;;;1.85;;
59193;SDS011;44967;48.598;15.650;2022-08-04T12:56:35;1.75;;;1.65;;
59193;SDS011;44967;48.598;15.650;2022-08-04T12:59:02;2.08;;;1.88;;
59193;SDS011;44967;48.598;15.650;2022-08-04T13:01:33;1.52;;;1.45;;
59193;SDS011;44967;48.598;15.650;2022-08-04T13:04:14;2.60;;;1.80;;
59193;SDS011;44967;48.598;15.650;2022-08-04T13:06:43;1.50;;;1.40;;
59193;SDS011;44967;48.598;15.650;2022-08-04T13:09:31;2.97;;;1.92;;
59193;SDS011;44967;48.598;15.650;2022-08-04T13:11:59;1.75;;;1.60;;
59193;SDS011;44967;48.598;15.650;2022-08-04T13:14:30;3.17;;;1.80;;
59193;SDS011;44967;48.598;15.650;2022-08-04T13:16:59;2.17;;;1.40;;
59193;SDS011;44967;48.598;15.650;2022-08-04T13:19:26;2.17;;;1.67;;
59193;SDS011;44967;48.598;15.650;2022-08-04T13:21:53;1.95;;;1.70;;
59193;SDS011;44967;48.598;15.650;2022-08-04T13:24:22;2.45;;;1.90;;
59193;SDS011;44967;48.598;15.650;2022-08-04T13:26:54;2.65;;;1.58;;
59193;SDS011;44967;48.598;15.650;2022-08-04T13:29:36;1.55;;;1.40;;
59193;SDS011;44967;48.598;15.650;2022-08-04T13:32:10;2.25;;;1.90;;
59193;SDS011;44967;48.598;15.650;2022-08-04T13:34:41;2.65;;;2.00;;
59193;SDS011;44967;48.598;15.650;2022-08-04T13:37:08;1.70;;;1.60;;
59193;SDS011;44967;48.598;15.650;2022-08-04T13:39:35;1.98;;;1.77;;
59193;SDS011;44967;48.598;15.650;2022-08-04T13:42:04;1.65;;;1.55;;
59193;SDS011;44967;48.598;15.650;2022-08-04T13:44:34;2.13;;;1.80;;
59193;SDS011;44967;48.598;15.650;2022-08-04T13:49:31;1.67;;;1.55;;
59193;SDS011;44967;48.598;15.650;2022-08-04T13:52:01;3.08;;;1.70;;
59193;SDS011;44967;48.598;15.650;2022-08-04T13:54:38;1.83;;;1.48;;
59193;SDS011;44967;48.598;15.650;2022-08-04T13:57:29;1.63;;;1.35;;
59193;SDS011;44967;48.598;15.650;2022-08-04T14:00:00;3.33;;;1.80;;
59193;SDS011;44967;48.598;15.650;2022-08-04T14:02:41;1.77;;;1.67;;
59193;SDS011;44967;48.598;15.650;2022-08-04T14:05:22;1.63;;;1.52;;
59193;SDS011;44967;48.598;15.650;2022-08-04T14:07:53;1.67;;;1.58;;
59193;SDS011;44967;48.598;15.650;2022-08-04T14:10:29;2.22;;;1.67;;
59193;SDS011;44967;48.598;15.650;2022-08-04T14:12:56;1.67;;;1.58;;
59193;SDS011;44967;48.598;15.650;2022-08-04T14:18:15;2.67;;;1.88;;
59193;SDS011;44967;48.598;15.650;2022-08-04T14:23:38;2.55;;;1.60;;
59193;SDS011;44967;48.598;15.650;2022-08-04T14:26:13;4.78;;;1.73;;
59193;SDS011;44967;48.598;15.650;2022-08-04T14:28:45;1.83;;;1.55;;
59193;SDS011;44967;48.598;15.650;2022-08-04T14:31:18;3.05;;;1.40;;
59193;SDS011;44967;48.598;15.650;2022-08-04T14:33:46;2.75;;;1.42;;
59193;SDS011;44967;48.598;15.650;2022-08-04T14:36:13;2.05;;;1.50;;
59193;SDS011;44967;48.598;15.650;2022-08-04T14:41:18;2.15;;;1.83;;
59193;SDS011;44967;48.598;15.650;2022-08-04T14:43:53;1.63;;;1.52;;
59193;SDS011;44967;48.598;15.650;2022-08-04T14:46:21;2.60;;;1.52;;
59193;SDS011;44967;48.598;15.650;2022-08-04T14:49:01;2.97;;;1.70;;
59193;SDS011;44967;48.598;15.650;2022-08-04T14:54:07;1.80;;;1.30;;
59193;SDS011;44967;48.598;15.650;2022-08-04T14:56:34;3.50;;;1.67;;
59193;SDS011;44967;48.598;15.650;2022-08-04T14:59:03;1.70;;;1.60;;
59193;SDS011;44967;48.598;15.650;2022-08-04T15:01:31;1.60;;;1.48;;
59193;SDS011;44967;48.598;15.650;2022-08-04T15:03:59;1.63;;;1.52;;
59193;SDS011;44967;48.598;15.650;2022-08-04T15:06:27;1.70;;;1.60;;
59193;SDS011;44967;48.598;15.650;2022-08-04T15:08:55;2.97;;;1.90;;
59193;SDS011;44967;48.598;15.650;2022-08-04T15:11:23;2.08;;;1.80;;
59193;SDS011;44967;48.598;15.650;2022-08-04T15:13:48;2.58;;;1.88;;
59193;SDS011;44967;48.598;15.650;2022-08-04T15:16:14;2.28;;;1.90;;
59193;SDS011;44967;48.598;15.650;2022-08-04T15:18:40;1.55;;;1.45;;
59193;SDS011;44967;48.598;15.650;2022-08-04T15:21:06;3.70;;;1.80;;
59193;SDS011;44967;48.598;15.650;2022-08-04T15:23:34;5.25;;;1.75;;
59193;SDS011;44967;48.598;15.650;2022-08-04T15:26:02;1.80;;;1.67;;
59193;SDS011;44967;48.598;15.650;2022-08-04T15:28:30;1.67;;;1.58;;
59193;SDS011;44967;48.598;15.650;2022-08-04T15:31:00;3.22;;;2.00;;
59193;SDS011;44967;48.598;15.650;2022-08-04T15:33:29;1.38;;;1.33;;
59193;SDS011;44967;48.598;15.650;2022-08-04T15:38:40;2.08;;;1.60;;
59193;SDS011;44967;48.598;15.650;2022-08-04T15:41:32;2.35;;;1.80;;
59193;SDS011;44967;48.598;15.650;2022-08-04T15:47:08;2.97;;;2.00;;
59193;SDS011;44967;48.598;15.650;2022-08-04T15:49:35;2.20;;;1.95;;
59193;SDS011;44967;48.598;15.650;2022-08-04T15:54:30;1.98;;;1.85;;
59193;SDS011;44967;48.598;15.650;2022-08-04T15:56:56;2.33;;;1.80;;
59193;SDS011;44967;48.598;15.650;2022-08-04T16:00:23;3.22;;;1.80;;
59193;SDS011;44967;48.598;15.650;2022-08-04T16:02:37;1.88;;;1.77;;
59193;SDS011;44967;48.598;15.650;2022-08-04T16:12:56;1.98;;;1.88;;
59193;SDS011;44967;48.598;15.650;2022-08-04T16:18:10;4.60;;;1.75;;
59193;SDS011;44967;48.598;15.650;2022-08-04T16:20:37;2.13;;;1.92;;
59193;SDS011;44967;48.598;15.650;2022-08-04T16:23:21;2.15;;;1.70;;
59193;SDS011;44967;48.598;15.650;2022-08-04T16:26:13;3.53;;;1.95;;
59193;SDS011;44967;48.598;15.650;2022-08-04T16:28:40;1.70;;;1.60;;
59193;SDS011;44967;48.598;15.650;2022-08-04T16:31:09;3.28;;;1.83;;
59193;SDS011;44967;48.598;15.650;2022-08-04T16:33:36;1.90;;;1.80;;
59193;SDS011;44967;48.598;15.650;2022-08-04T16:36:07;2.60;;;1.65;;
59193;SDS011;44967;48.598;15.650;2022-08-04T16:41:46;1.80;;;1.70;;
59193;SDS011;44967;48.598;15.650;2022-08-04T16:44:29;1.73;;;1.63;;
59193;SDS011;44967;48.598;15.650;2022-08-04T16:47:04;1.60;;;1.50;;
59193;SDS011;44967;48.598;15.650;2022-08-04T16:49:31;1.75;;;1.33;;
59193;SDS011;44967;48.598;15.650;2022-08-04T16:52:01;3.22;;;1.80;;
59193;SDS011;44967;48.598;15.650;2022-08-04T16:54:30;2.40;;;1.80;;
59193;SDS011;44967;48.598;15.650;2022-08-04T16:57:06;1.70;;;1.60;;
59193;SDS011;44967;48.598;15.650;2022-08-04T16:59:34;2.40;;;1.92;;
59193;SDS011;44967;48.598;15.650;2022-08-04T17:02:00;2.45;;;2.00;;
59193;SDS011;44967;48.598;15.650;2022-08-04T17:04:27;2.40;;;1.73;;
59193;SDS011;44967;48.598;15.650;2022-08-04T17:06:57;3.35;;;2.08;;
59193;SDS011;44967;48.598;15.650;2022-08-04T17:09:28;5.43;;;1.83;;
59193;SDS011;44967;48.598;15.650;2022-08-04T17:11:55;2.17;;;1.85;;
59193;SDS011;44967;48.598;15.650;2022-08-04T17:14:22;3.30;;;2.15;;
59193;SDS011;44967;48.598;15.650;2022-08-04T17:16:49;3.38;;;1.90;;
59193;SDS011;44967;48.598;15.650;2022-08-04T17:19:15;2.60;;;2.00;;
59193;SDS011;44967;48.598;15.650;2022-08-04T17:21:42;3.38;;;1.33;;
59193;SDS011;44967;48.598;15.650;2022-08-04T17:24:08;4.47;;;2.20;;
59193;SDS011;44967;48.598;15.650;2022-08-04T17:26:35;2.95;;;1.90;;
59193;SDS011;44967;48.598;15.650;2022-08-04T17:29:02;2.05;;;1.75;;
59193;SDS011;44967;48.598;15.650;2022-08-04T17:31:30;1.77;;;1.67;;
59193;SDS011;44967;48.598;15.650;2022-08-04T17:33:58;5.60;;;2.13;;
59193;SDS011;44967;48.598;15.650;2022-08-04T17:36:27;3.05;;;1.80;;
59193;SDS011;44967;48.598;15.650;2022-08-04T17:38:59;5.35;;;1.92;;
59193;SDS011;44967;48.598;15.650;2022-08-04T17:41:28;2.38;;;1.90;;
59193;SDS011;44967;48.598;15.650;2022-08-04T17:43:55;2.42;;;1.55;;
59193;SDS011;44967;48.598;15.650;2022-08-04T17:46:27;2.65;;;1.63;;
59193;SDS011;44967;48.598;15.650;2022-08-04T17:49:04;1.95;;;1.70;;
59193;SDS011;44967;48.598;15.650;2022-08-04T17:51:43;6.10;;;2.50;;
59193;SDS011;44967;48.598;15.650;2022-08-04T17:56:54;3.42;;;2.08;;
59193;SDS011;44967;48.598;15.650;2022-08-04T18:02:12;3.67;;;2.20;;
59193;SDS011;44967;48.598;15.650;2022-08-04T18:07:14;2.45;;;2.25;;
59193;SDS011;44967;48.598;15.650;2022-08-04T18:15:00;4.97;;;2.03;;
59193;SDS011;44967;48.598;15.650;2022-08-04T18:20:15;4.40;;;2.30;;
59193;SDS011;44967;48.598;15.650;2022-08-04T18:22:46;2.85;;;1.98;;
59193;SDS011;44967;48.598;15.650;2022-08-04T18:25:16;2.95;;;2.22;;
59193;SDS011;44967;48.598;15.650;2022-08-04T18:27:46;3.15;;;1.92;;
59193;SDS011;44967;48.598;15.650;2022-08-04T18:30:15;2.03;;;1.83;;
59193;SDS011;44967;48.598;15.650;2022-08-04T18:32:41;2.35;;;2.15;;
59193;SDS011;44967;48.598;15.650;2022-08-04T18:35:07;2.33;;;2.13;;
59193;SDS011;44967;48.598;15.650;2022-08-04T18:37:34;2.78;;;2.03;;
59193;SDS011;44967;48.598;15.650;2022-08-04T18:40:02;3.20;;;2.28;;
59193;SDS011;44967;48.598;15.650;2022-08-04T18:42:28;2.17;;;1.90;;
59193;SDS011;44967;48.598;15.650;2022-08-04T18:44:54;4.50;;;2.40;;
59193;SDS011;44967;48.598;15.650;2022-08-04T18:47:21;2.65;;;1.80;;
59193;SDS011;44967;48.598;15.650;2022-08-04T18:49:52;3.40;;;1.55;;
59193;SDS011;44967;48.598;15.650;2022-08-04T18:52:20;2.53;;;1.95;;
59193;SDS011;44967;48.598;15.650;2022-08-04T18:54:46;2.10;;;1.90;;
59193;SDS011;44967;48.598;15.650;2022-08-04T18:57:18;2.33;;;2.13;;
59193;SDS011;44967;48.598;15.650;2022-08-04T18:59:49;2.90;;;2.00;;
59193;SDS011;44967;48.598;15.650;2022-08-04T19:02:15;2.03;;;1.85;;
59193;SDS011;44967;48.598;15.650;2022-08-04T19:04:41;2.38;;;2.17;;
59193;SDS011;44967;48.598;15.650;2022-08-04T19:07:08;2.42;;;1.80;;
59193;SDS011;44967;48.598;15.650;2022-08-04T19:09:35;2.80;;;2.00;;
59193;SDS011;44967;48.598;15.650;2022-08-04T19:12:01;2.22;;;1.80;;
59193;SDS011;44967;48.598;15.650;2022-08-04T19:14:26;2.30;;;2.10;;
59193;SDS011;44967;48.598;15.650;2022-08-04T19:16:52;5.07;;;2.08;;
59193;SDS011;44967;48.598;15.650;2022-08-04T19:19:18;2.25;;;1.90;;
59193;SDS011;44967;48.598;15.650;2022-08-04T19:21:44;3.17;;;2.10;;
59193;SDS011;44967;48.598;15.650;2022-08-04T19:24:10;2.45;;;1.98;;
59193;SDS011;44967;48.598;15.650;2022-08-04T19:26:37;2.60;;;1.95;;
59193;SDS011;44967;48.598;15.650;2022-08-04T19:29:03;1.83;;;1.65;;
59193;SDS011;44967;48.598;15.650;2022-08-04T19:31:29;2.20;;;1.88;;
59193;SDS011;44967;48.598;15.650;2022-08-04T19:33:56;3.60;;;2.08;;
59193;SDS011;44967;48.598;15.650;2022-08-04T19:36:22;4.45;;;2.30;;
59193;SDS011;44967;48.598;15.650;2022-08-04T19:38:48;2.90;;;1.90;;
59193;SDS011;44967;48.598;15.650;2022-08-04T19:41:14;2.33;;;2.10;;
59193;SDS011;44967;48.598;15.650;2022-08-04T19:43:39;5.18;;;2.08;;
59193;SDS011;44967;48.598;15.650;2022-08-04T19:46:06;3.10;;;2.25;;
59193;SDS011;44967;48.598;15.650;2022-08-04T19:48:32;2.20;;;2.00;;
59193;SDS011;44967;48.598;15.650;2022-08-04T19:50:58;2.85;;;2.03;;
59193;SDS011;44967;48.598;15.650;2022-08-04T19:53:23;2.33;;;1.90;;
59193;SDS011;44967;48.598;15.650;2022-08-04T19:55:49;2.83;;;2.50;;